Aviation Digital Data Service (ADDS)

Output produced by METARs form (1021 UTC 19 January 2019)
found at http://www.aviationweather.gov/metar/data/
 
OAIX 191010Z 00000KT 2800 -RASN BR BKN004 OVC014 01/01 A3022 RMK AO2A SLP210 $
TAF AMD OAIX 191005Z 1910/2013 VRB06KT 5000 -RA BR SCT006 OVC010 610209 510043
QNH3013INS 
     TEMPO 1910/1912 2400 -RASN BR BKN004 OVC006 
     BECMG 1915/1916 VRB06KT 5000 RA OVC005 640209 QNH3006INS 
     BECMG 1923/1924 VRB06KT 3200 -SHRA BR OVC006 640209 QNH3000INS 
     BECMG 2004/2005 31009KT 5000 -SHRA BR OVC008 610209 QNH2992INS TX04/1910Z
TN01/2002Z
       
OAHR 190855Z 30007KT CAVOK 10/M04 Q1012 RMK A2989 BLU
TAF OAHR 190500Z 1906/2006 31006KT CAVOK 
     BECMG 1912/1914 24012KT 9999 SCT050 BKN080 
     BECMG 1916/1918 33009KT 8000 VCSH BKN050 
     TEMPO 1918/2002 35012KT 5000 RASN SCT005 BKN010 OVC030
       
OAJL 190955Z 36002KT 9999 BKN075 15/02 A3015 RMK AO2A SLP205 T01510024
TAF OAJL 190800Z 1908/2014 VRB06KT 9000 HZ SCT060 BKN080 610802 QNH3009INS 
     BECMG 1918/1919 VRB06KT 8000 HZ SCT050 BKN070 610703 QNH3006INS 
     TEMPO 1919/2000 8000 -RA 
     BECMG 2007/2008 VRB06KT 8000 -SHRA SCT040 BKN050 QNH2998INS TX17/1910Z
TN08/2003Z
       
OAKB 190950Z 09003KT 1600 1000SE -SNRA BR FEW005 OVC020 01/00 Q1022 REDZ NOSIG RMK A3019 R1129//95 YLO YLO
TAF OAKB 190505Z 1906/2006 VRB02KT 1800 -SN BR SCT008 OVC015 
     PROB40 
     TEMPO 1906/1908 0700 SN FG SCT003 BKN005 OVC010 
     BECMG 1907/1909 03006KT 3000 -RASN BR SCT010 BKN020 
     PROB30 1909/1913 VRB15KT -TSRA SCT015CB OVC020 
     BECMG 1916/1918 VRB02KT 1500 -SN BR SCT006 OVC010 
     TEMPO 1920/2006 0700 SN FG SCT003 OVC006
       
OAKN 190956Z 08008G14KT 8000 HZ SCT065 BKN220 23/09 A2988 RMK SLPNO WND DATA ESTMD Q1012 PA3280 DA5123
TAF AMD OAKN 190817Z 1908/2013 19012KT 9000 DU FEW060 SCT080 BKN200 QNH2994INS 
     BECMG 1911/1912 17012G18KT 5000 BLDU VCTS BKN050CB QNH2993INS 
     TEMPO 1917/1922 16020G30KT 3200 -TSRA BKN030CB 
     BECMG 2001/2002 23010G15KT 5000 BR VCSH SCT060 BKN080 QNH2998INS 
     TEMPO 2002/2005 3200 BR 
     BECMG 2005/2006 25012G18KT 5000 DU FEW100 QNH3001INS TX19/1910Z TN09/2001Z
       
OAMS 190950Z 26006KT 6000 FEW014 OVC060 08/06 Q1012 WHT BLU+
TAF OAMS 190505Z 1906/2006 24008KT 8000 NSW FEW120 SCT180 BKN230 
     TEMPO 1909/1914 23012KT 9000 -SHRA FEW060 BKN080 OVC100 
     TEMPO 1914/1918 26006KT 5000 FU FEW060 BKN080 OVC100 
     BECMG 1916/1918 23012KT 7000 VCSH FEW060 SCT100 BKN160 
     TEMPO 1918/2001 25012KT 8000 -SHRA SCT040 BKN080 OVC100 
     BECMG 2001/2003 27015KT 8000 NSW BKN020 OVC080